New Orleans, Louisiana
Traffic Map
Current Weather Conditions
New Orleans, Louisiana
Clear
Clear
10°
Feels Like: 10°
Wind Chill: 10° Ceiling: Unl
Heat Index: 10° Visibility: 10mi
Dew Point: -4° Wind: 9mph
Humidity: 36% Direction: 30° (NNE)
Pressure: 30.47in Gusts: 0mph
Raw Report DataKNEW 101853Z AUTO 03008KT 10SM CLR 10/M04 A3047 RMK AO2 SLP310 T01001044
Traffic Incident Summary
Active as of:
Severity:
Category:
InformationThere was an issue retrieving the traffic information for this location. Please try a different location or try again shortly.
Advertisements
Track Severe Weather on mobile